VABP/BHO METAR and TAF weather

Enter ICAO airport designator
Station Type Date Time Source
VABP METAR 2019/04/19 10:00 UTC NOAA

VABP 191000Z 27008KT 6000 SCT030 34/10 Q1009 NOSIG


Station Type Date Time Source
VABP Decoded METAR 2019/04/19 10:00 UTC NOAA

Bhopal / Bairagarh, India (VABP) 23-17N 077-21E 523M
Apr 19, 2019 - 06:00 AM EDT / 2019.04.19 1000 UTC
Wind: from the W (270 degrees) at 9 MPH (8 KT):0
Visibility: 3 mile(s):0
Sky conditions: partly cloudy
Temperature: 93 F (34 C)
Dew Point: 50 F (10 C)
Relative Humidity: 23%
Pressure (altimeter): 29.80 in. Hg (1009 hPa)
ob: VABP 191000Z 27008KT 6000 SCT030 34/10 Q1009 NOSIG
cycle: 10

Station Type Date Time Source
VABP TAF 2019/04/18 06:00 UTC NOAA

TAF VABP 180500Z 1806/1815 32008KT 6000 FEW030

Example: see airport list